createdAt,value
2023-03-22T06:09:43.694Z,61.35
2023-03-22T06:11:46.564Z,60.88
2023-03-22T06:13:49.368Z,60.81
2023-03-22T06:15:52.631Z,60.28
2023-03-22T06:17:55.438Z,60.24
2023-03-22T06:19:58.422Z,59.80
2023-03-22T06:22:01.296Z,59.75
2023-03-22T06:24:04.205Z,59.54
2023-03-22T06:26:11.286Z,59.73
2023-03-22T06:28:14.065Z,59.46
2023-03-22T06:30:19.515Z,59.54
2023-03-22T06:32:23.486Z,59.35
2023-03-22T06:34:26.589Z,59.15
2023-03-22T06:36:30.341Z,58.96
2023-03-22T06:38:50.070Z,58.83
2023-03-22T06:40:52.970Z,59.13
2023-03-22T06:42:57.161Z,59.00
2023-03-22T06:44:59.919Z,58.61
2023-03-22T06:47:02.967Z,58.85
2023-03-22T06:49:06.139Z,58.80
2023-03-22T06:51:09.349Z,58.58
2023-03-22T06:53:12.120Z,58.35
2023-03-22T06:55:15.029Z,58.42
2023-03-22T06:57:17.875Z,58.29
2023-03-22T06:59:22.024Z,58.20
2023-03-22T07:01:24.849Z,58.25
2023-03-22T07:03:27.643Z,58.30
2023-03-22T07:05:30.529Z,58.09
2023-03-22T07:07:33.338Z,58.22
2023-03-22T07:09:36.315Z,58.20
2023-03-22T07:11:39.242Z,58.00
2023-03-22T07:13:42.325Z,57.83
2023-03-22T07:15:46.522Z,57.97
2023-03-22T07:17:49.728Z,57.86
2023-03-22T07:19:53.116Z,57.90
2023-03-22T07:21:58.421Z,57.98
2023-03-22T07:24:01.301Z,57.91
2023-03-22T07:26:06.046Z,57.86
2023-03-22T07:28:10.450Z,57.53
2023-03-22T07:30:14.066Z,57.50
2023-03-22T07:32:18.325Z,57.56
2023-03-22T07:34:21.245Z,57.55
2023-03-22T07:36:25.658Z,57.28
2023-03-22T07:38:28.678Z,57.36
2023-03-22T07:40:31.687Z,57.33
2023-03-22T07:42:34.743Z,57.12
2023-03-22T07:44:37.665Z,57.00
2023-03-22T07:46:40.836Z,57.02
2023-03-22T07:48:45.179Z,56.93
2023-03-22T07:50:48.847Z,56.88
2023-03-22T07:52:51.731Z,56.69
2023-03-22T07:54:54.710Z,56.72
2023-03-22T07:56:57.545Z,56.54
2023-03-22T07:59:00.548Z,56.58
2023-03-22T08:01:05.797Z,56.49
2023-03-22T08:03:08.925Z,56.42
2023-03-22T08:05:13.180Z,56.16
2023-03-22T08:07:18.642Z,56.23
2023-03-22T08:09:21.627Z,56.10
2023-03-22T08:11:24.594Z,56.11
2023-03-22T08:13:27.678Z,55.75
2023-03-22T08:15:30.500Z,55.63
2023-03-22T08:17:33.451Z,55.36
2023-03-22T08:19:36.811Z,55.66
2023-03-22T08:21:41.046Z,55.27
2023-03-22T08:23:43.893Z,55.29
2023-03-22T08:25:46.952Z,55.56
2023-03-22T08:27:49.804Z,55.17
2023-03-22T08:29:52.850Z,55.05
2023-03-22T08:31:56.197Z,55.09
2023-03-22T08:33:59.618Z,54.89
2023-03-22T08:36:09.694Z,54.84
2023-03-22T08:38:13.987Z,54.75
2023-03-22T08:40:17.271Z,54.75
2023-03-22T08:42:20.038Z,54.31
2023-03-22T08:44:22.872Z,54.37
2023-03-22T08:46:25.779Z,54.43
2023-03-22T08:48:30.668Z,54.16
2023-03-22T08:50:34.417Z,54.22
2023-03-22T08:52:37.299Z,54.13
2023-03-22T08:54:41.401Z,53.92
2023-03-22T08:56:44.248Z,54.21
2023-03-22T08:58:47.418Z,53.80
2023-03-22T09:00:50.551Z,53.81
2023-03-22T09:02:53.464Z,53.63
2023-03-22T09:04:56.407Z,53.80
2023-03-22T09:06:59.333Z,53.51
2023-03-22T09:09:02.222Z,53.69
2023-03-22T09:11:09.500Z,53.55
2023-03-22T09:13:13.470Z,53.34
2023-03-22T09:15:16.358Z,53.09
2023-03-22T09:17:22.392Z,52.91
2023-03-22T09:19:34.387Z,53.08
2023-03-22T09:21:38.755Z,52.92
2023-03-22T09:23:42.432Z,52.90
2023-03-22T09:25:47.006Z,53.02
2023-03-22T09:27:51.249Z,52.96
2023-03-22T09:29:54.360Z,53.21
2023-03-22T09:31:59.281Z,53.26
2023-03-22T09:34:02.212Z,53.00
2023-03-22T09:36:05.870Z,52.79
2023-03-22T09:38:09.306Z,53.03
2023-03-22T09:40:13.401Z,53.05
2023-03-22T09:42:31.105Z,52.73
2023-03-22T09:44:40.637Z,52.92
2023-03-22T09:46:48.856Z,52.49
2023-03-22T09:48:53.121Z,52.43
2023-03-22T09:50:57.167Z,52.57
2023-03-22T09:53:01.308Z,52.33
2023-03-22T09:55:04.257Z,52.24
2023-03-22T09:57:12.137Z,51.94
2023-03-22T09:59:19.171Z,52.05
2023-03-22T10:01:35.491Z,51.80
2023-03-22T10:04:14.655Z,51.46
2023-03-22T10:06:20.455Z,51.55
2023-03-22T10:08:44.150Z,51.13
2023-03-22T10:10:47.106Z,51.14
2023-03-22T10:12:57.638Z,51.20
2023-03-22T10:15:07.448Z,51.10
2023-03-22T10:17:17.306Z,50.80
2023-03-22T10:19:24.419Z,50.81
2023-03-22T10:21:27.986Z,51.00
2023-03-22T10:23:35.439Z,50.57
2023-03-22T10:25:40.903Z,50.59
2023-03-22T10:27:44.722Z,50.54
2023-03-22T10:29:52.326Z,50.32
2023-03-22T10:31:55.943Z,50.41
2023-03-22T10:34:03.599Z,50.00
2023-03-22T10:36:10.551Z,50.19
2023-03-22T10:38:20.857Z,50.07
2023-03-22T10:40:27.447Z,50.07
2023-03-22T10:42:32.223Z,49.85
2023-03-22T10:44:45.817Z,49.73
2023-03-22T10:46:52.314Z,49.50
2023-03-22T10:49:00.549Z,49.34
2023-03-22T10:51:05.264Z,49.49
2023-03-22T10:53:12.689Z,49.35
2023-03-22T10:55:16.925Z,49.18
2023-03-22T10:57:19.751Z,49.07
2023-03-22T10:59:48.400Z,49.11
2023-03-22T11:01:52.567Z,48.82
2023-03-22T11:03:59.400Z,48.91
2023-03-22T11:06:08.111Z,48.90
2023-03-22T11:08:15.564Z,48.64
2023-03-22T11:10:32.598Z,48.53
2023-03-22T11:12:37.073Z,48.42
2023-03-22T11:14:44.976Z,48.46
2023-03-22T11:16:56.058Z,48.16
2023-03-22T11:19:03.022Z,48.09
2023-03-22T11:21:10.911Z,48.14
2023-03-22T11:23:17.981Z,48.05
2023-03-22T11:25:27.392Z,48.01
2023-03-22T11:27:33.030Z,47.79
2023-03-22T11:29:45.331Z,47.65
2023-03-22T11:31:56.273Z,47.85
2023-03-22T11:34:01.211Z,47.85
2023-03-22T11:36:06.580Z,47.79
2023-03-22T11:38:25.095Z,47.74
2023-03-22T11:40:29.105Z,47.48
2023-03-22T11:42:35.428Z,47.63
2023-03-22T11:44:38.605Z,47.73
2023-03-22T11:46:51.506Z,47.65
2023-03-22T11:49:01.331Z,47.51
2023-03-22T11:51:11.132Z,47.49
2023-03-22T11:53:20.482Z,47.42
2023-03-22T11:55:23.991Z,47.44
2023-03-22T11:57:30.773Z,47.17
2023-03-22T11:59:39.113Z,47.21
2023-03-22T12:01:46.677Z,47.21
2023-03-22T12:03:53.143Z,47.17
2023-03-22T12:05:57.079Z,47.32
2023-03-22T12:08:05.400Z,47.19
2023-03-22T12:10:16.908Z,47.27
2023-03-22T12:12:24.060Z,47.28
2023-03-22T12:14:30.865Z,47.19
2023-03-22T12:16:42.698Z,47.10
2023-03-22T12:18:54.497Z,47.10
2023-03-22T12:21:01.406Z,46.84
2023-03-22T12:23:15.594Z,46.72
2023-03-22T12:25:24.693Z,46.58
2023-03-22T12:27:32.417Z,46.56
2023-03-22T12:29:39.904Z,46.53
2023-03-22T12:31:53.494Z,46.57
2023-03-22T12:34:06.453Z,46.40
2023-03-22T12:36:18.696Z,46.49
2023-03-22T12:38:36.061Z,46.33
2023-03-22T12:40:44.789Z,46.35
2023-03-22T12:42:58.992Z,45.96
2023-03-22T12:45:06.424Z,46.19
2023-03-22T12:47:19.288Z,45.86
2023-03-22T12:49:29.455Z,45.88
2023-03-22T12:51:37.827Z,45.84
2023-03-22T12:54:13.200Z,45.85
2023-03-22T12:56:25.160Z,45.74
2023-03-22T12:58:29.285Z,45.54
2023-03-22T13:00:40.119Z,45.44
2023-03-22T13:02:51.920Z,45.41
2023-03-22T13:04:57.472Z,45.39
2023-03-22T13:07:12.712Z,45.25
2023-03-22T13:09:20.211Z,45.26
2023-03-22T13:11:39.607Z,45.34
2023-03-22T13:13:45.740Z,45.14
2023-03-22T13:16:02.103Z,44.95
2023-03-22T13:18:05.902Z,45.09
2023-03-22T13:20:41.460Z,44.97
2023-03-22T13:23:28.545Z,45.13
2023-03-22T13:25:36.659Z,45.14
2023-03-22T13:27:45.122Z,45.00
2023-03-22T13:29:54.137Z,45.11
2023-03-22T13:31:59.982Z,44.85
2023-03-22T13:34:05.127Z,44.93
2023-03-22T13:36:33.494Z,44.74
2023-03-22T13:38:47.669Z,44.85
2023-03-22T13:41:13.295Z,44.92
2023-03-22T13:43:29.419Z,45.01
2023-03-22T13:46:27.143Z,44.91
2023-03-22T13:48:53.340Z,44.92
2023-03-22T13:51:24.376Z,44.76
2023-03-22T13:53:56.052Z,44.95
2023-03-22T13:56:16.279Z,44.82
2023-03-22T13:58:52.527Z,44.80
2023-03-22T14:00:58.193Z,44.75
2023-03-22T14:03:17.620Z,44.58
2023-03-22T14:07:46.995Z,44.52
2023-03-22T14:09:53.337Z,44.50
2023-03-22T14:12:06.609Z,44.61
2023-03-22T14:14:17.575Z,44.44
2023-03-22T14:16:34.744Z,44.37
2023-03-22T14:18:43.498Z,44.41
2023-03-22T14:21:03.086Z,44.48
